sensor_id;sensor_type;location;lat;lon;timestamp;pressure;altitude;pressure_sealevel;temperature;humidity
9077;BME280;4574;51.072;17.174;2023-08-20T00:00:32;63291.66;;;-139.42;100.00
9077;BME280;4574;51.072;17.174;2023-08-20T00:03:04;63291.66;;;-139.42;100.00
9077;BME280;4574;51.072;17.174;2023-08-20T00:05:39;63291.66;;;-139.42;100.00
9077;BME280;4574;51.072;17.174;2023-08-20T00:08:08;63291.66;;;-139.42;100.00
9077;BME280;4574;51.072;17.174;2023-08-20T00:10:36;63291.66;;;-139.42;100.00
9077;BME280;4574;51.072;17.174;2023-08-20T00:13:05;63291.66;;;-139.42;100.00
9077;BME280;4574;51.072;17.174;2023-08-20T00:15:34;100456.41;;;24.03;100.00
9077;BME280;4574;51.072;17.174;2023-08-20T00:18:05;100454.75;;;24.02;100.00
9077;BME280;4574;51.072;17.174;2023-08-20T00:20:34;100459.34;;;24.01;100.00
9077;BME280;4574;51.072;17.174;2023-08-20T00:23:04;100455.19;;;23.99;100.00
9077;BME280;4574;51.072;17.174;2023-08-20T00:25:33;100460.59;;;23.99;100.00
9077;BME280;4574;51.072;17.174;2023-08-20T00:28:02;100458.16;;;23.97;100.00
9077;BME280;4574;51.072;17.174;2023-08-20T00:30:31;100451.53;;;23.93;100.00
9077;BME280;4574;51.072;17.174;2023-08-20T00:32:59;100453.19;;;23.94;100.00
9077;BME280;4574;51.072;17.174;2023-08-20T00:35:29;100454.25;;;23.93;100.00
9077;BME280;4574;51.072;17.174;2023-08-20T00:37:58;100442.81;;;23.91;100.00
9077;BME280;4574;51.072;17.174;2023-08-20T00:40:26;100445.53;;;23.91;100.00
9077;BME280;4574;51.072;17.174;2023-08-20T00:42:55;100448.69;;;23.88;100.00
9077;BME280;4574;51.072;17.174;2023-08-20T00:45:23;100454.56;;;23.85;100.00
9077;BME280;4574;51.072;17.174;2023-08-20T00:47:52;100442.78;;;23.73;100.00
9077;BME280;4574;51.072;17.174;2023-08-20T00:50:22;100446.97;;;23.69;100.00
9077;BME280;4574;51.072;17.174;2023-08-20T00:52:52;100442.72;;;23.44;100.00
9077;BME280;4574;51.072;17.174;2023-08-20T00:55:20;100443.81;;;23.36;100.00
9077;BME280;4574;51.072;17.174;2023-08-20T00:57:49;100444.66;;;23.37;100.00
9077;BME280;4574;51.072;17.174;2023-08-20T01:00:18;100441.72;;;23.38;100.00
9077;BME280;4574;51.072;17.174;2023-08-20T01:02:46;100442.91;;;23.42;100.00
9077;BME280;4574;51.072;17.174;2023-08-20T01:05:15;100441.88;;;23.43;100.00
9077;BME280;4574;51.072;17.174;2023-08-20T01:08:00;100449.78;;;23.45;100.00
9077;BME280;4574;51.072;17.174;2023-08-20T01:10:39;100446.03;;;23.21;100.00
9077;BME280;4574;51.072;17.174;2023-08-20T01:13:11;100451.44;;;23.21;100.00
9077;BME280;4574;51.072;17.174;2023-08-20T01:15:40;100448.28;;;23.24;100.00
9077;BME280;4574;51.072;17.174;2023-08-20T01:18:09;100428.63;;;23.17;100.00
9077;BME280;4574;51.072;17.174;2023-08-20T01:20:41;100444.72;;;23.30;100.00
9077;BME280;4574;51.072;17.174;2023-08-20T01:26:40;100446.34;;;23.31;100.00
9077;BME280;4574;51.072;17.174;2023-08-20T01:29:16;100437.66;;;23.29;100.00
9077;BME280;4574;51.072;17.174;2023-08-20T01:31:44;100440.34;;;23.29;100.00
9077;BME280;4574;51.072;17.174;2023-08-20T01:34:13;100442.25;;;23.29;100.00
9077;BME280;4574;51.072;17.174;2023-08-20T01:36:42;100437.66;;;23.29;100.00
9077;BME280;4574;51.072;17.174;2023-08-20T01:39:10;100434.34;;;23.27;100.00
9077;BME280;4574;51.072;17.174;2023-08-20T01:41:39;100433.75;;;23.25;100.00
9077;BME280;4574;51.072;17.174;2023-08-20T01:44:07;100434.78;;;23.24;100.00
9077;BME280;4574;51.072;17.174;2023-08-20T01:46:37;100435.25;;;23.21;100.00
9077;BME280;4574;51.072;17.174;2023-08-20T01:49:06;100428.63;;;23.17;100.00
9077;BME280;4574;51.072;17.174;2023-08-20T01:51:34;100427.22;;;23.15;100.00
9077;BME280;4574;51.072;17.174;2023-08-20T01:54:04;100428.25;;;23.14;100.00
9077;BME280;4574;51.072;17.174;2023-08-20T01:56:33;100431.16;;;23.13;100.00
9077;BME280;4574;51.072;17.174;2023-08-20T01:59:02;100424.13;;;23.12;100.00
9077;BME280;4574;51.072;17.174;2023-08-20T02:01:30;100422.69;;;23.09;100.00
9077;BME280;4574;51.072;17.174;2023-08-20T02:04:00;100426.63;;;23.07;100.00
9077;BME280;4574;51.072;17.174;2023-08-20T02:06:29;100421.06;;;23.02;100.00
9077;BME280;4574;51.072;17.174;2023-08-20T02:08:58;100435.41;;;23.02;100.00
9077;BME280;4574;51.072;17.174;2023-08-20T02:11:26;100431.25;;;23.00;100.00
9077;BME280;4574;51.072;17.174;2023-08-20T02:13:56;100437.09;;;22.97;100.00
9077;BME280;4574;51.072;17.174;2023-08-20T02:16:24;100444.59;;;22.95;100.00
9077;BME280;4574;51.072;17.174;2023-08-20T02:18:53;100443.38;;;22.91;100.00
9077;BME280;4574;51.072;17.174;2023-08-20T02:21:23;100441.72;;;22.90;100.00
9077;BME280;4574;51.072;17.174;2023-08-20T02:23:51;100446.53;;;22.88;100.00
9077;BME280;4574;51.072;17.174;2023-08-20T02:26:20;100445.91;;;22.86;100.00
9077;BME280;4574;51.072;17.174;2023-08-20T02:28:48;100448.00;;;22.84;100.00
9077;BME280;4574;51.072;17.174;2023-08-20T02:31:17;100443.25;;;22.79;100.00
9077;BME280;4574;51.072;17.174;2023-08-20T02:33:46;100451.78;;;22.76;100.00
9077;BME280;4574;51.072;17.174;2023-08-20T02:36:14;100449.53;;;22.73;100.00
9077;BME280;4574;51.072;17.174;2023-08-20T02:38:44;100443.53;;;22.71;100.00
9077;BME280;4574;51.072;17.174;2023-08-20T02:41:13;100446.47;;;22.70;100.00
9077;BME280;4574;51.072;17.174;2023-08-20T02:43:42;100447.72;;;22.67;100.00
9077;BME280;4574;51.072;17.174;2023-08-20T02:46:11;100451.47;;;22.66;100.00
9077;BME280;4574;51.072;17.174;2023-08-20T02:48:39;100458.13;;;22.64;100.00
9077;BME280;4574;51.072;17.174;2023-08-20T02:51:08;100448.81;;;22.60;100.00
9077;BME280;4574;51.072;17.174;2023-08-20T02:53:36;100452.78;;;22.57;100.00
9077;BME280;4574;51.072;17.174;2023-08-20T02:56:06;100446.16;;;22.53;100.00
9077;BME280;4574;51.072;17.174;2023-08-20T02:58:35;100452.41;;;22.54;100.00
9077;BME280;4574;51.072;17.174;2023-08-20T03:01:04;100450.94;;;22.51;100.00
9077;BME280;4574;51.072;17.174;2023-08-20T03:03:32;100453.03;;;22.49;100.00
9077;BME280;4574;51.072;17.174;2023-08-20T03:06:01;100439.16;;;22.46;100.00
9077;BME280;4574;51.072;17.174;2023-08-20T03:08:29;100438.56;;;22.44;100.00
9077;BME280;4574;51.072;17.174;2023-08-20T03:10:58;100446.66;;;22.44;100.00
9077;BME280;4574;51.072;17.174;2023-08-20T03:13:28;100447.91;;;22.41;100.00
9077;BME280;4574;51.072;17.174;2023-08-20T03:15:56;100454.34;;;22.40;100.00
9077;BME280;4574;51.072;17.174;2023-08-20T03:18:25;100446.66;;;22.37;100.00
9077;BME280;4574;51.072;17.174;2023-08-20T03:20:54;100455.00;;;22.36;100.00
9077;BME280;4574;51.072;17.174;2023-08-20T03:23:23;100458.09;;;22.33;100.00
9077;BME280;4574;51.072;17.174;2023-08-20T03:25:52;100442.59;;;22.22;100.00
9077;BME280;4574;51.072;17.174;2023-08-20T03:28:21;100466.63;;;22.30;100.00
9077;BME280;4574;51.072;17.174;2023-08-20T03:30:51;100464.97;;;22.29;100.00
9077;BME280;4574;51.072;17.174;2023-08-20T03:33:19;100469.75;;;22.27;100.00
9077;BME280;4574;51.072;17.174;2023-08-20T03:35:48;100461.47;;;22.22;100.00
9077;BME280;4574;51.072;17.174;2023-08-20T03:38:16;100466.25;;;22.20;100.00
9077;BME280;4574;51.072;17.174;2023-08-20T03:40:45;100470.25;;;22.11;100.00
9077;BME280;4574;51.072;17.174;2023-08-20T03:43:13;100463.03;;;21.92;100.00
9077;BME280;4574;51.072;17.174;2023-08-20T03:45:42;100464.59;;;21.56;100.00
9077;BME280;4574;51.072;17.174;2023-08-20T03:48:13;100465.00;;;21.59;100.00
9077;BME280;4574;51.072;17.174;2023-08-20T03:50:41;100466.25;;;21.63;100.00
9077;BME280;4574;51.072;17.174;2023-08-20T03:53:10;100467.06;;;21.70;100.00
9077;BME280;4574;51.072;17.174;2023-08-20T03:55:38;100463.53;;;21.76;100.00
9077;BME280;4574;51.072;17.174;2023-08-20T03:58:07;63291.66;;;-139.42;100.00
9077;BME280;4574;51.072;17.174;2023-08-20T04:00:35;63291.66;;;-139.42;100.00
9077;BME280;4574;51.072;17.174;2023-08-20T04:03:04;63291.66;;;-139.42;100.00
9077;BME280;4574;51.072;17.174;2023-08-20T04:05:37;63291.66;;;-139.42;100.00
9077;BME280;4574;51.072;17.174;2023-08-20T04:08:06;63291.66;;;-139.42;100.00
9077;BME280;4574;51.072;17.174;2023-08-20T04:10:35;63291.66;;;-139.42;100.00
9077;BME280;4574;51.072;17.174;2023-08-20T04:13:04;63291.66;;;-139.42;100.00
9077;BME280;4574;51.072;17.174;2023-08-20T04:15:32;63291.66;;;-139.42;100.00
9077;BME280;4574;51.072;17.174;2023-08-20T04:18:01;63291.66;;;-139.42;100.00
9077;BME280;4574;51.072;17.174;2023-08-20T04:20:29;63291.66;;;-139.42;100.00
9077;BME280;4574;51.072;17.174;2023-08-20T04:22:59;63291.66;;;-139.42;100.00
9077;BME280;4574;51.072;17.174;2023-08-20T04:25:28;63291.66;;;-139.42;100.00
9077;BME280;4574;51.072;17.174;2023-08-20T04:27:56;63291.66;;;-139.42;100.00
9077;BME280;4574;51.072;17.174;2023-08-20T04:30:25;63291.66;;;-139.42;100.00
9077;BME280;4574;51.072;17.174;2023-08-20T04:32:53;63291.66;;;-139.42;100.00
9077;BME280;4574;51.072;17.174;2023-08-20T04:35:21;63291.66;;;-139.42;100.00
9077;BME280;4574;51.072;17.174;2023-08-20T04:37:50;63291.66;;;-139.42;100.00
9077;BME280;4574;51.072;17.174;2023-08-20T04:40:21;63291.66;;;-139.42;100.00
9077;BME280;4574;51.072;17.174;2023-08-20T04:42:50;63291.66;;;-139.42;100.00
9077;BME280;4574;51.072;17.174;2023-08-20T04:45:19;63291.66;;;-139.42;100.00
9077;BME280;4574;51.072;17.174;2023-08-20T04:47:48;63291.66;;;-139.42;100.00
9077;BME280;4574;51.072;17.174;2023-08-20T04:50:16;63291.66;;;-139.42;100.00
9077;BME280;4574;51.072;17.174;2023-08-20T04:52:47;63291.66;;;-139.42;100.00
9077;BME280;4574;51.072;17.174;2023-08-20T04:55:17;63291.66;;;-139.42;100.00
9077;BME280;4574;51.072;17.174;2023-08-20T04:57:47;63291.66;;;-139.42;100.00
9077;BME280;4574;51.072;17.174;2023-08-20T05:00:16;63291.66;;;-139.42;100.00
9077;BME280;4574;51.072;17.174;2023-08-20T05:02:45;63291.66;;;-139.42;100.00
9077;BME280;4574;51.072;17.174;2023-08-20T05:05:13;63291.66;;;-139.42;100.00
9077;BME280;4574;51.072;17.174;2023-08-20T05:07:43;63291.66;;;-139.42;100.00
9077;BME280;4574;51.072;17.174;2023-08-20T05:10:12;63291.66;;;-139.42;100.00
9077;BME280;4574;51.072;17.174;2023-08-20T05:12:41;63291.66;;;-139.42;100.00
9077;BME280;4574;51.072;17.174;2023-08-20T05:15:11;63291.66;;;-139.42;100.00
9077;BME280;4574;51.072;17.174;2023-08-20T05:17:40;63291.66;;;-139.42;100.00
9077;BME280;4574;51.072;17.174;2023-08-20T05:20:09;63291.66;;;-139.42;100.00
9077;BME280;4574;51.072;17.174;2023-08-20T05:22:38;63291.66;;;-139.42;100.00
9077;BME280;4574;51.072;17.174;2023-08-20T05:25:07;63291.66;;;-139.42;100.00
9077;BME280;4574;51.072;17.174;2023-08-20T05:27:36;63291.66;;;-139.42;100.00
9077;BME280;4574;51.072;17.174;2023-08-20T05:30:06;63291.66;;;-139.42;100.00
9077;BME280;4574;51.072;17.174;2023-08-20T05:32:37;63291.66;;;-139.42;100.00
9077;BME280;4574;51.072;17.174;2023-08-20T05:35:06;63291.66;;;-139.42;100.00
9077;BME280;4574;51.072;17.174;2023-08-20T05:37:35;63291.66;;;-139.42;100.00
9077;BME280;4574;51.072;17.174;2023-08-20T05:40:05;63291.66;;;-139.42;100.00
9077;BME280;4574;51.072;17.174;2023-08-20T05:42:35;63291.66;;;-139.42;100.00
9077;BME280;4574;51.072;17.174;2023-08-20T05:45:05;63291.66;;;-139.42;100.00
9077;BME280;4574;51.072;17.174;2023-08-20T05:47:33;63291.66;;;-139.42;100.00
9077;BME280;4574;51.072;17.174;2023-08-20T05:50:04;63291.66;;;-139.42;100.00
9077;BME280;4574;51.072;17.174;2023-08-20T05:52:33;63291.66;;;-139.42;100.00
9077;BME280;4574;51.072;17.174;2023-08-20T05:55:02;63291.66;;;-139.42;100.00
9077;BME280;4574;51.072;17.174;2023-08-20T05:57:31;63291.66;;;-139.42;100.00
9077;BME280;4574;51.072;17.174;2023-08-20T05:59:59;63291.66;;;-139.42;100.00
9077;BME280;4574;51.072;17.174;2023-08-20T06:02:28;63291.66;;;-139.42;100.00
9077;BME280;4574;51.072;17.174;2023-08-20T06:04:56;63291.66;;;-139.42;100.00
9077;BME280;4574;51.072;17.174;2023-08-20T06:07:26;63291.66;;;-139.42;100.00
9077;BME280;4574;51.072;17.174;2023-08-20T06:09:55;63291.66;;;-139.42;100.00
9077;BME280;4574;51.072;17.174;2023-08-20T06:12:24;63291.66;;;-139.42;100.00
9077;BME280;4574;51.072;17.174;2023-08-20T06:14:52;63291.66;;;-139.42;100.00
9077;BME280;4574;51.072;17.174;2023-08-20T06:17:21;63291.66;;;-139.42;100.00
9077;BME280;4574;51.072;17.174;2023-08-20T06:19:50;63291.66;;;-139.42;100.00
9077;BME280;4574;51.072;17.174;2023-08-20T06:22:19;63291.66;;;-139.42;100.00
9077;BME280;4574;51.072;17.174;2023-08-20T06:24:49;63291.66;;;-139.42;100.00
9077;BME280;4574;51.072;17.174;2023-08-20T06:27:17;63291.66;;;-139.42;100.00
9077;BME280;4574;51.072;17.174;2023-08-20T06:29:46;63291.66;;;-139.42;100.00
9077;BME280;4574;51.072;17.174;2023-08-20T06:32:14;63291.66;;;-139.42;100.00
9077;BME280;4574;51.072;17.174;2023-08-20T06:34:43;63291.66;;;-139.42;100.00
9077;BME280;4574;51.072;17.174;2023-08-20T06:37:12;63291.66;;;-139.42;100.00
9077;BME280;4574;51.072;17.174;2023-08-20T06:39:40;63291.66;;;-139.42;100.00
9077;BME280;4574;51.072;17.174;2023-08-20T06:42:10;63291.66;;;-139.42;100.00
9077;BME280;4574;51.072;17.174;2023-08-20T06:44:39;63291.66;;;-139.42;100.00
9077;BME280;4574;51.072;17.174;2023-08-20T06:47:07;63291.66;;;-139.42;100.00
9077;BME280;4574;51.072;17.174;2023-08-20T06:49:36;63291.66;;;-139.42;100.00
9077;BME280;4574;51.072;17.174;2023-08-20T06:52:04;63291.66;;;-139.42;100.00
9077;BME280;4574;51.072;17.174;2023-08-20T06:54:33;63291.66;;;-139.42;100.00
9077;BME280;4574;51.072;17.174;2023-08-20T06:57:01;63291.66;;;-139.42;100.00
9077;BME280;4574;51.072;17.174;2023-08-20T06:59:31;63291.66;;;-139.42;100.00
9077;BME280;4574;51.072;17.174;2023-08-20T07:02:00;63291.66;;;-139.42;100.00
9077;BME280;4574;51.072;17.174;2023-08-20T07:04:30;63291.66;;;-139.42;100.00
9077;BME280;4574;51.072;17.174;2023-08-20T07:07:00;63291.66;;;-139.42;100.00
9077;BME280;4574;51.072;17.174;2023-08-20T07:09:28;63291.66;;;-139.42;100.00
9077;BME280;4574;51.072;17.174;2023-08-20T07:11:57;63291.66;;;-139.42;100.00
9077;BME280;4574;51.072;17.174;2023-08-20T07:14:27;63291.66;;;-139.42;100.00
9077;BME280;4574;51.072;17.174;2023-08-20T07:16:58;63291.66;;;-139.42;100.00
9077;BME280;4574;51.072;17.174;2023-08-20T07:19:30;63291.66;;;-139.42;100.00
9077;BME280;4574;51.072;17.174;2023-08-20T07:21:59;63291.66;;;-139.42;100.00
9077;BME280;4574;51.072;17.174;2023-08-20T07:24:28;63291.66;;;-139.42;100.00
9077;BME280;4574;51.072;17.174;2023-08-20T07:27:02;63291.66;;;-139.42;100.00
9077;BME280;4574;51.072;17.174;2023-08-20T07:29:38;63291.66;;;-139.42;100.00
9077;BME280;4574;51.072;17.174;2023-08-20T07:32:08;63291.66;;;-139.42;100.00
9077;BME280;4574;51.072;17.174;2023-08-20T07:34:37;63291.66;;;-139.42;100.00
9077;BME280;4574;51.072;17.174;2023-08-20T07:37:05;63291.66;;;-139.42;100.00
9077;BME280;4574;51.072;17.174;2023-08-20T07:39:34;63291.66;;;-139.42;100.00
9077;BME280;4574;51.072;17.174;2023-08-20T07:42:03;63291.66;;;-139.42;100.00
9077;BME280;4574;51.072;17.174;2023-08-20T07:44:32;63291.66;;;-139.42;100.00
9077;BME280;4574;51.072;17.174;2023-08-20T07:47:00;63291.66;;;-139.42;100.00
9077;BME280;4574;51.072;17.174;2023-08-20T07:49:30;63291.66;;;-139.42;100.00
9077;BME280;4574;51.072;17.174;2023-08-20T07:51:59;63291.66;;;-139.42;100.00
9077;BME280;4574;51.072;17.174;2023-08-20T07:54:27;63291.66;;;-139.42;100.00
9077;BME280;4574;51.072;17.174;2023-08-20T07:56:56;63291.66;;;-139.42;100.00
9077;BME280;4574;51.072;17.174;2023-08-20T07:59:24;63291.66;;;-139.42;100.00
9077;BME280;4574;51.072;17.174;2023-08-20T08:01:53;63291.66;;;-139.42;100.00
9077;BME280;4574;51.072;17.174;2023-08-20T08:04:21;63291.66;;;-139.42;100.00
9077;BME280;4574;51.072;17.174;2023-08-20T08:06:51;63291.66;;;-139.42;100.00
9077;BME280;4574;51.072;17.174;2023-08-20T08:09:21;63291.66;;;-139.42;100.00
9077;BME280;4574;51.072;17.174;2023-08-20T08:11:50;63291.66;;;-139.42;100.00
9077;BME280;4574;51.072;17.174;2023-08-20T08:14:18;63291.66;;;-139.42;100.00
9077;BME280;4574;51.072;17.174;2023-08-20T08:16:47;63291.66;;;-139.42;100.00
9077;BME280;4574;51.072;17.174;2023-08-20T08:19:16;63291.66;;;-139.42;100.00
9077;BME280;4574;51.072;17.174;2023-08-20T08:21:44;63291.66;;;-139.42;100.00
9077;BME280;4574;51.072;17.174;2023-08-20T08:24:15;63291.66;;;-139.42;100.00
9077;BME280;4574;51.072;17.174;2023-08-20T08:26:44;63291.66;;;-139.42;100.00
9077;BME280;4574;51.072;17.174;2023-08-20T08:29:12;63291.66;;;-139.42;100.00
9077;BME280;4574;51.072;17.174;2023-08-20T08:31:41;63291.66;;;-139.42;100.00
9077;BME280;4574;51.072;17.174;2023-08-20T08:34:09;63291.66;;;-139.42;100.00
9077;BME280;4574;51.072;17.174;2023-08-20T08:36:38;63291.66;;;-139.42;100.00
9077;BME280;4574;51.072;17.174;2023-08-20T08:39:07;63291.66;;;-139.42;100.00
9077;BME280;4574;51.072;17.174;2023-08-20T08:41:38;63291.66;;;-139.42;100.00
9077;BME280;4574;51.072;17.174;2023-08-20T08:44:09;63291.66;;;-139.42;100.00
9077;BME280;4574;51.072;17.174;2023-08-20T08:46:38;63291.66;;;-139.42;100.00
9077;BME280;4574;51.072;17.174;2023-08-20T08:49:08;63291.66;;;-139.42;100.00
9077;BME280;4574;51.072;17.174;2023-08-20T08:51:36;63291.66;;;-139.42;100.00
9077;BME280;4574;51.072;17.174;2023-08-20T08:54:07;63291.66;;;-139.42;100.00
9077;BME280;4574;51.072;17.174;2023-08-20T08:56:38;63291.66;;;-139.42;100.00
9077;BME280;4574;51.072;17.174;2023-08-20T08:59:09;63291.66;;;-139.42;100.00
9077;BME280;4574;51.072;17.174;2023-08-20T09:01:38;63291.66;;;-139.42;100.00
9077;BME280;4574;51.072;17.174;2023-08-20T09:04:07;63291.66;;;-139.42;100.00
9077;BME280;4574;51.072;17.174;2023-08-20T09:06:55;63291.66;;;-139.42;100.00
9077;BME280;4574;51.072;17.174;2023-08-20T09:09:29;63291.66;;;-139.42;100.00
9077;BME280;4574;51.072;17.174;2023-08-20T09:11:59;63291.66;;;-139.42;100.00
9077;BME280;4574;51.072;17.174;2023-08-20T09:14:28;63291.66;;;-139.42;100.00
9077;BME280;4574;51.072;17.174;2023-08-20T09:16:58;63291.66;;;-139.42;100.00
9077;BME280;4574;51.072;17.174;2023-08-20T09:19:28;63291.66;;;-139.42;100.00
9077;BME280;4574;51.072;17.174;2023-08-20T09:22:00;63291.66;;;-139.42;100.00
9077;BME280;4574;51.072;17.174;2023-08-20T09:24:32;63291.66;;;-139.42;100.00
9077;BME280;4574;51.072;17.174;2023-08-20T09:27:06;63291.66;;;-139.42;100.00
9077;BME280;4574;51.072;17.174;2023-08-20T09:29:44;63291.66;;;-139.42;100.00
9077;BME280;4574;51.072;17.174;2023-08-20T09:32:17;63291.66;;;-139.42;100.00
9077;BME280;4574;51.072;17.174;2023-08-20T09:34:47;63291.66;;;-139.42;100.00
9077;BME280;4574;51.072;17.174;2023-08-20T09:37:17;63291.66;;;-139.42;100.00
9077;BME280;4574;51.072;17.174;2023-08-20T09:39:46;63291.66;;;-139.42;100.00
9077;BME280;4574;51.072;17.174;2023-08-20T09:42:17;63291.66;;;-139.42;100.00
9077;BME280;4574;51.072;17.174;2023-08-20T09:44:46;63291.66;;;-139.42;100.00
9077;BME280;4574;51.072;17.174;2023-08-20T09:47:18;63291.66;;;-139.42;100.00
9077;BME280;4574;51.072;17.174;2023-08-20T09:49:49;63291.66;;;-139.42;100.00
9077;BME280;4574;51.072;17.174;2023-08-20T09:52:25;63291.66;;;-139.42;100.00
9077;BME280;4574;51.072;17.174;2023-08-20T09:55:00;63291.66;;;-139.42;100.00
9077;BME280;4574;51.072;17.174;2023-08-20T09:57:34;63291.66;;;-139.42;100.00
9077;BME280;4574;51.072;17.174;2023-08-20T10:00:05;63291.66;;;-139.42;100.00
9077;BME280;4574;51.072;17.174;2023-08-20T10:02:37;63291.66;;;-139.42;100.00
9077;BME280;4574;51.072;17.174;2023-08-20T10:05:07;63291.66;;;-139.42;100.00
9077;BME280;4574;51.072;17.174;2023-08-20T10:07:36;63291.66;;;-139.42;100.00
9077;BME280;4574;51.072;17.174;2023-08-20T10:10:06;63291.66;;;-139.42;100.00
9077;BME280;4574;51.072;17.174;2023-08-20T10:12:36;63291.66;;;-139.42;100.00
9077;BME280;4574;51.072;17.174;2023-08-20T10:15:09;63291.66;;;-139.42;100.00
9077;BME280;4574;51.072;17.174;2023-08-20T10:17:40;63291.66;;;-139.42;100.00
9077;BME280;4574;51.072;17.174;2023-08-20T10:20:12;63291.66;;;-139.42;100.00
9077;BME280;4574;51.072;17.174;2023-08-20T10:22:42;63291.66;;;-139.42;100.00
9077;BME280;4574;51.072;17.174;2023-08-20T10:25:12;63291.66;;;-139.42;100.00
9077;BME280;4574;51.072;17.174;2023-08-20T10:27:51;63291.66;;;-139.42;100.00
9077;BME280;4574;51.072;17.174;2023-08-20T10:30:25;63291.66;;;-139.42;100.00
9077;BME280;4574;51.072;17.174;2023-08-20T10:32:55;63291.66;;;-139.42;100.00
9077;BME280;4574;51.072;17.174;2023-08-20T10:35:46;63291.66;;;-139.42;100.00
9077;BME280;4574;51.072;17.174;2023-08-20T10:38:16;63291.66;;;-139.42;100.00
9077;BME280;4574;51.072;17.174;2023-08-20T10:40:53;63291.66;;;-139.42;100.00
9077;BME280;4574;51.072;17.174;2023-08-20T10:43:32;63291.66;;;-139.42;100.00
9077;BME280;4574;51.072;17.174;2023-08-20T10:46:05;63291.66;;;-139.42;100.00
9077;BME280;4574;51.072;17.174;2023-08-20T10:48:38;63291.66;;;-139.42;100.00
9077;BME280;4574;51.072;17.174;2023-08-20T10:51:11;63291.66;;;-139.42;100.00
9077;BME280;4574;51.072;17.174;2023-08-20T10:53:41;100605.63;;;32.29;77.83
9077;BME280;4574;51.072;17.174;2023-08-20T10:56:11;100601.75;;;32.50;76.72
9077;BME280;4574;51.072;17.174;2023-08-20T10:58:43;100598.97;;;32.60;77.18
9077;BME280;4574;51.072;17.174;2023-08-20T11:01:23;100606.59;;;32.78;75.68
9077;BME280;4574;51.072;17.174;2023-08-20T11:03:52;100614.72;;;32.93;76.14
9077;BME280;4574;51.072;17.174;2023-08-20T11:06:21;100615.19;;;33.10;73.23
9077;BME280;4574;51.072;17.174;2023-08-20T11:08:49;100615.66;;;33.27;75.05
9077;BME280;4574;51.072;17.174;2023-08-20T11:11:18;100609.81;;;33.38;73.42
9077;BME280;4574;51.072;17.174;2023-08-20T11:13:50;100608.94;;;33.43;71.87
9077;BME280;4574;51.072;17.174;2023-08-20T11:16:19;100613.53;;;33.52;70.29
9077;BME280;4574;51.072;17.174;2023-08-20T11:18:48;100603.66;;;33.51;68.47
9077;BME280;4574;51.072;17.174;2023-08-20T11:21:16;100612.34;;;33.63;67.34
9077;BME280;4574;51.072;17.174;2023-08-20T11:23:46;100607.63;;;33.69;68.13
9077;BME280;4574;51.072;17.174;2023-08-20T11:26:17;100606.44;;;33.80;68.83
9077;BME280;4574;51.072;17.174;2023-08-20T11:28:46;100610.72;;;33.91;64.90
9077;BME280;4574;51.072;17.174;2023-08-20T11:31:16;100597.44;;;34.03;66.55
9077;BME280;4574;51.072;17.174;2023-08-20T11:33:45;100606.13;;;34.15;67.32
9077;BME280;4574;51.072;17.174;2023-08-20T11:36:15;100611.53;;;34.25;66.51
9077;BME280;4574;51.072;17.174;2023-08-20T11:38:49;100602.38;;;34.29;63.03
9077;BME280;4574;51.072;17.174;2023-08-20T11:41:19;100604.72;;;34.41;61.98
9077;BME280;4574;51.072;17.174;2023-08-20T11:43:48;100598.59;;;34.49;63.88
9077;BME280;4574;51.072;17.174;2023-08-20T11:46:22;100600.59;;;34.67;63.98
9077;BME280;4574;51.072;17.174;2023-08-20T11:49:05;100610.41;;;34.72;63.87
9077;BME280;4574;51.072;17.174;2023-08-20T11:51:35;100609.09;;;34.88;61.46
9077;BME280;4574;51.072;17.174;2023-08-20T11:54:05;100601.50;;;34.99;62.05
9077;BME280;4574;51.072;17.174;2023-08-20T11:56:35;100601.66;;;35.07;60.64
9077;BME280;4574;51.072;17.174;2023-08-20T11:59:10;100595.31;;;34.88;57.85
9077;BME280;4574;51.072;17.174;2023-08-20T12:01:43;100597.78;;;34.90;58.43
9077;BME280;4574;51.072;17.174;2023-08-20T12:04:17;100595.94;;;35.04;58.71
9077;BME280;4574;51.072;17.174;2023-08-20T12:07:01;100586.56;;;35.05;59.51
9077;BME280;4574;51.072;17.174;2023-08-20T12:09:30;100585.59;;;35.14;59.44
9077;BME280;4574;51.072;17.174;2023-08-20T12:11:59;100582.03;;;35.14;59.52
9077;BME280;4574;51.072;17.174;2023-08-20T12:14:28;100587.16;;;35.39;58.97
9077;BME280;4574;51.072;17.174;2023-08-20T12:16:58;100582.00;;;35.51;58.30
9077;BME280;4574;51.072;17.174;2023-08-20T12:19:26;100586.84;;;35.59;59.17
9077;BME280;4574;51.072;17.174;2023-08-20T12:21:55;100589.19;;;35.65;57.87
9077;BME280;4574;51.072;17.174;2023-08-20T12:24:24;100581.88;;;35.74;56.31
9077;BME280;4574;51.072;17.174;2023-08-20T12:26:53;100581.72;;;35.84;58.43
9077;BME280;4574;51.072;17.174;2023-08-20T12:29:22;100578.94;;;35.98;59.27
9077;BME280;4574;51.072;17.174;2023-08-20T12:31:51;100585.81;;;36.00;58.84
9077;BME280;4574;51.072;17.174;2023-08-20T12:34:21;100575.84;;;36.17;56.85
9077;BME280;4574;51.072;17.174;2023-08-20T12:36:50;100570.31;;;36.44;57.88
9077;BME280;4574;51.072;17.174;2023-08-20T12:39:19;100569.00;;;36.69;55.81
9077;BME280;4574;51.072;17.174;2023-08-20T12:41:49;100569.88;;;36.91;56.45
9077;BME280;4574;51.072;17.174;2023-08-20T12:44:18;100575.75;;;37.12;56.88
9077;BME280;4574;51.072;17.174;2023-08-20T12:46:46;100579.16;;;37.31;55.83
9077;BME280;4574;51.072;17.174;2023-08-20T12:49:15;100570.59;;;37.41;55.44
9077;BME280;4574;51.072;17.174;2023-08-20T12:51:45;100578.53;;;37.34;54.40
9077;BME280;4574;51.072;17.174;2023-08-20T12:54:13;100583.53;;;37.32;55.60
9077;BME280;4574;51.072;17.174;2023-08-20T12:56:42;100577.06;;;37.50;55.20
9077;BME280;4574;51.072;17.174;2023-08-20T12:59:11;100577.81;;;37.63;54.59
9077;BME280;4574;51.072;17.174;2023-08-20T13:01:39;100576.94;;;37.55;54.06